createdAt,value
2019-04-07T00:01:45.831Z,8.68
2019-04-07T00:04:14.587Z,8.67
2019-04-07T00:06:42.970Z,8.65
2019-04-07T00:09:11.945Z,8.61
2019-04-07T00:11:40.423Z,8.58
2019-04-07T00:14:08.814Z,8.49
2019-04-07T00:16:37.357Z,8.46
2019-04-07T00:19:06.572Z,8.42
2019-04-07T00:21:35.271Z,8.42
2019-04-07T00:24:03.774Z,8.46
2019-04-07T00:26:32.162Z,8.28
2019-04-07T00:29:01.578Z,8.37
2019-04-07T00:31:30.173Z,8.37
2019-04-07T00:33:59.299Z,8.33
2019-04-07T00:36:27.897Z,8.32
2019-04-07T00:38:56.254Z,8.28
2019-04-07T00:41:24.846Z,8.19
2019-04-07T00:43:53.201Z,8.11
2019-04-07T00:46:21.852Z,8.07
2019-04-07T00:48:50.254Z,8.03
2019-04-07T00:51:18.789Z,8.03
2019-04-07T00:53:47.105Z,7.99
2019-04-07T00:56:15.819Z,7.95
2019-04-07T00:58:44.539Z,7.96
2019-04-07T01:01:15.175Z,8.00
2019-04-07T01:03:43.606Z,7.95
2019-04-07T01:06:12.001Z,7.94
2019-04-07T01:08:40.381Z,7.90
2019-04-07T01:11:08.881Z,7.87
2019-04-07T01:13:37.372Z,7.86
2019-04-07T01:16:05.696Z,7.80
2019-04-07T01:18:35.464Z,7.79
2019-04-07T01:21:03.883Z,7.73
2019-04-07T01:23:32.515Z,7.68
2019-04-07T01:26:00.983Z,7.67
2019-04-07T01:28:29.518Z,7.66
2019-04-07T01:30:59.070Z,7.63
2019-04-07T01:33:27.747Z,7.59
2019-04-07T01:35:56.410Z,7.54
2019-04-07T01:38:24.866Z,7.57
2019-04-07T01:40:55.363Z,7.55
2019-04-07T01:43:28.116Z,7.52
2019-04-07T01:46:07.018Z,7.47
2019-04-07T01:48:52.098Z,7.50
2019-04-07T01:51:31.303Z,7.48
2019-04-07T01:54:03.853Z,7.48
2019-04-07T01:56:33.870Z,7.43
2019-04-07T01:59:11.249Z,7.41
2019-04-07T02:01:41.729Z,7.39
2019-04-07T02:07:14.516Z,7.34
2019-04-07T02:09:59.810Z,7.32
2019-04-07T02:12:46.591Z,7.33
2019-04-07T02:15:19.194Z,7.28
2019-04-07T02:17:58.264Z,7.30
2019-04-07T02:20:40.018Z,7.28
2019-04-07T02:23:12.794Z,7.22
2019-04-07T02:25:44.097Z,7.16
2019-04-07T02:28:23.038Z,7.16
2019-04-07T02:31:08.108Z,7.13
2019-04-07T02:33:40.818Z,7.11
2019-04-07T02:36:18.193Z,7.10
2019-04-07T02:38:42.683Z,7.08
2019-04-07T02:41:12.704Z,6.93
2019-04-07T02:43:55.618Z,6.99
2019-04-07T02:46:38.220Z,6.96
2019-04-07T02:49:14.169Z,6.94
2019-04-07T02:51:56.359Z,6.93
2019-04-07T02:54:36.054Z,6.87
2019-04-07T02:57:24.357Z,6.80
2019-04-07T02:59:54.433Z,6.78
2019-04-07T03:02:41.166Z,6.76
2019-04-07T03:05:20.963Z,6.76
2019-04-07T03:07:53.729Z,6.74
2019-04-07T03:10:24.976Z,6.70
2019-04-07T03:13:07.395Z,6.68
2019-04-07T03:15:44.157Z,6.65
2019-04-07T03:18:27.098Z,6.64
2019-04-07T03:21:13.101Z,6.66
2019-04-07T03:23:46.152Z,6.65
2019-04-07T03:26:32.470Z,6.63
2019-04-07T03:29:05.740Z,6.61
2019-04-07T03:31:38.991Z,6.54
2019-04-07T03:34:12.389Z,6.51
2019-04-07T03:37:32.229Z,6.50
2019-04-07T03:39:34.561Z,6.48
2019-04-07T03:44:51.291Z,6.43
2019-04-07T03:47:22.262Z,6.43
2019-04-07T03:49:52.942Z,6.45
2019-04-07T03:52:26.692Z,6.46
2019-04-07T03:55:13.399Z,6.45
2019-04-07T03:57:50.667Z,6.45
2019-04-07T04:00:42.254Z,6.46
2019-04-07T04:03:12.880Z,6.45
2019-04-07T04:05:43.387Z,6.42
2019-04-07T04:08:16.047Z,6.41
2019-04-07T04:10:48.841Z,6.37
2019-04-07T04:13:27.842Z,6.33
2019-04-07T04:16:00.964Z,6.34
2019-04-07T04:18:29.328Z,6.32
2019-04-07T04:20:57.705Z,6.32
2019-04-07T04:23:26.149Z,6.30
2019-04-07T04:25:54.547Z,6.32
2019-04-07T04:28:23.692Z,6.32
2019-04-07T04:30:52.343Z,6.29
2019-04-07T04:33:20.753Z,6.28
2019-04-07T04:35:49.155Z,6.27
2019-04-07T04:38:17.809Z,6.26
2019-04-07T04:40:46.281Z,6.26
2019-04-07T04:43:15.558Z,6.25
2019-04-07T04:45:44.880Z,6.27
2019-04-07T04:48:13.393Z,6.23
2019-04-07T04:50:42.131Z,6.24
2019-04-07T04:53:10.808Z,6.21
2019-04-07T04:55:39.299Z,6.20
2019-04-07T04:58:08.770Z,6.21
2019-04-07T05:00:38.456Z,6.18
2019-04-07T05:03:07.197Z,6.17
2019-04-07T05:05:35.789Z,6.17
2019-04-07T05:08:05.513Z,6.20
2019-04-07T05:10:34.830Z,6.21
2019-04-07T05:13:03.268Z,6.23
2019-04-07T05:15:32.559Z,6.31
2019-04-07T05:18:01.648Z,6.35
2019-04-07T05:20:30.181Z,6.43
2019-04-07T05:22:58.670Z,6.56
2019-04-07T05:25:27.412Z,6.69
2019-04-07T05:27:55.894Z,6.89
2019-04-07T05:30:24.248Z,7.07
2019-04-07T05:32:52.634Z,7.27
2019-04-07T05:35:21.027Z,7.35
2019-04-07T05:38:00.170Z,7.52
2019-04-07T05:40:20.116Z,7.61
2019-04-07T05:42:48.503Z,7.60
2019-04-07T05:45:17.290Z,7.66
2019-04-07T05:47:48.720Z,7.73
2019-04-07T05:50:16.693Z,7.95
2019-04-07T05:52:45.087Z,7.98
2019-04-07T05:55:14.243Z,7.95
2019-04-07T05:57:43.157Z,7.83
2019-04-07T06:00:15.598Z,7.72
2019-04-07T06:02:44.100Z,7.82
2019-04-07T06:05:12.478Z,7.97
2019-04-07T06:07:41.567Z,8.13
2019-04-07T06:10:11.209Z,8.26
2019-04-07T06:12:43.263Z,8.40
2019-04-07T06:15:09.857Z,8.63
2019-04-07T06:17:38.921Z,8.40
2019-04-07T06:20:12.118Z,8.71
2019-04-07T06:22:38.110Z,8.77
2019-04-07T06:25:07.307Z,8.88
2019-04-07T06:27:35.861Z,8.88
2019-04-07T06:30:08.343Z,8.88
2019-04-07T06:32:38.389Z,8.74
2019-04-07T06:35:07.666Z,8.74
2019-04-07T06:37:36.315Z,8.75
2019-04-07T06:40:06.446Z,8.72
2019-04-07T06:42:35.452Z,8.88
2019-04-07T06:45:06.794Z,9.07
2019-04-07T06:47:46.224Z,9.14
2019-04-07T06:50:16.877Z,9.17
2019-04-07T06:52:49.667Z,9.14
2019-04-07T06:55:20.107Z,9.17
2019-04-07T06:58:08.303Z,9.26
2019-04-07T07:00:41.199Z,9.35
2019-04-07T07:03:11.615Z,9.34
2019-04-07T07:05:45.352Z,9.41
2019-04-07T07:08:21.060Z,9.48
2019-04-07T07:10:53.262Z,9.65
2019-04-07T07:13:36.815Z,9.67
2019-04-07T07:16:10.138Z,9.68
2019-04-07T07:18:41.345Z,9.47
2019-04-07T07:21:26.073Z,9.38
2019-04-07T07:23:54.449Z,9.37
2019-04-07T07:26:23.412Z,9.36
2019-04-07T07:28:52.117Z,9.33
2019-04-07T07:31:25.260Z,9.30
2019-04-07T07:33:50.655Z,9.30
2019-04-07T07:36:21.518Z,9.35
2019-04-07T07:38:57.586Z,9.39
2019-04-07T07:41:22.202Z,9.48
2019-04-07T07:43:49.337Z,9.53
2019-04-07T07:46:20.535Z,9.60
2019-04-07T07:48:47.834Z,9.60
2019-04-07T07:51:16.458Z,9.64
2019-04-07T07:53:44.986Z,9.68
2019-04-07T07:56:14.267Z,9.73
2019-04-07T07:58:42.684Z,9.83
2019-04-07T08:01:13.541Z,9.92
2019-04-07T08:03:41.450Z,9.98
2019-04-07T08:06:09.805Z,10.05
2019-04-07T08:08:38.191Z,10.08
2019-04-07T08:11:06.788Z,10.10
2019-04-07T08:13:42.125Z,10.16
2019-04-07T08:16:06.331Z,10.14
2019-04-07T08:18:37.126Z,10.28
2019-04-07T08:21:05.556Z,10.36
2019-04-07T08:23:34.139Z,10.45
2019-04-07T08:26:02.801Z,10.54
2019-04-07T08:28:33.680Z,10.62
2019-04-07T08:31:01.894Z,10.75
2019-04-07T08:33:30.438Z,10.74
2019-04-07T08:35:58.940Z,10.72
2019-04-07T08:38:28.335Z,10.74
2019-04-07T08:40:57.537Z,10.75
2019-04-07T08:43:26.489Z,10.79
2019-04-07T08:45:55.366Z,10.87
2019-04-07T08:48:23.866Z,10.96
2019-04-07T08:50:52.848Z,11.04
2019-04-07T08:53:21.693Z,11.12
2019-04-07T08:55:54.387Z,11.17
2019-04-07T08:58:25.843Z,11.19
2019-04-07T09:00:53.809Z,11.22
2019-04-07T09:03:22.065Z,11.23
2019-04-07T09:05:51.355Z,11.25
2019-04-07T09:08:20.421Z,11.36
2019-04-07T09:10:53.838Z,11.38
2019-04-07T09:13:22.469Z,11.42
2019-04-07T09:15:55.631Z,11.41
2019-04-07T09:18:51.633Z,11.48
2019-04-07T09:21:38.673Z,11.48
2019-04-07T09:24:05.030Z,11.51
2019-04-07T09:26:35.511Z,11.52
2019-04-07T09:29:11.649Z,11.63
2019-04-07T09:31:41.626Z,11.66
2019-04-07T09:34:18.217Z,11.65
2019-04-07T09:36:52.108Z,11.66
2019-04-07T09:39:24.777Z,11.75
2019-04-07T09:42:00.955Z,11.82
2019-04-07T09:44:36.011Z,11.87
2019-04-07T09:47:07.842Z,11.93
2019-04-07T09:49:46.172Z,12.06
2019-04-07T09:52:22.131Z,12.17
2019-04-07T09:54:57.557Z,12.29
2019-04-07T09:57:27.595Z,12.34
2019-04-07T09:59:57.614Z,12.43
2019-04-07T10:02:35.489Z,12.59
2019-04-07T10:05:24.103Z,12.61
2019-04-07T10:08:07.114Z,12.58
2019-04-07T10:10:43.661Z,12.59
2019-04-07T10:13:25.678Z,12.53
2019-04-07T10:16:12.052Z,12.48
2019-04-07T10:18:58.366Z,12.66
2019-04-07T10:21:44.892Z,12.75
2019-04-07T10:24:31.494Z,12.80
2019-04-07T10:27:01.835Z,12.90
2019-04-07T10:29:31.911Z,13.10
2019-04-07T10:32:16.852Z,13.05
2019-04-07T10:35:02.470Z,13.06
2019-04-07T10:37:36.111Z,13.16
2019-04-07T10:40:20.344Z,13.35
2019-04-07T10:42:51.416Z,13.50
2019-04-07T10:45:24.988Z,13.58
2019-04-07T10:48:07.002Z,13.64
2019-04-07T10:50:45.935Z,13.65
2019-04-07T10:53:33.273Z,13.68
2019-04-07T10:56:09.925Z,13.59
2019-04-07T10:58:56.732Z,13.77
2019-04-07T11:01:33.376Z,13.80
2019-04-07T11:04:12.771Z,13.93
2019-04-07T11:06:43.862Z,14.10
2019-04-07T11:09:14.054Z,14.21
2019-04-07T11:11:46.664Z,14.35
2019-04-07T11:14:16.162Z,14.47
2019-04-07T11:16:49.852Z,14.56
2019-04-07T11:19:38.003Z,14.52
2019-04-07T11:22:14.418Z,14.48
2019-04-07T11:24:53.815Z,14.46
2019-04-07T11:27:27.691Z,14.53
2019-04-07T11:30:00.695Z,14.68
2019-04-07T11:32:37.072Z,14.71
2019-04-07T11:35:14.873Z,14.70
2019-04-07T11:37:45.124Z,14.78
2019-04-07T11:40:22.657Z,14.82
2019-04-07T11:42:53.438Z,14.82
2019-04-07T11:45:23.714Z,14.86
2019-04-07T11:47:54.496Z,14.86
2019-04-07T11:50:34.342Z,14.90
2019-04-07T11:53:07.579Z,15.00
2019-04-07T11:55:44.204Z,15.07
2019-04-07T11:58:19.954Z,15.14
2019-04-07T12:00:47.340Z,15.23
2019-04-07T12:03:24.686Z,15.27
2019-04-07T12:05:52.208Z,15.21
2019-04-07T12:08:35.800Z,15.21
2019-04-07T12:11:19.966Z,15.11
2019-04-07T12:13:49.995Z,15.13
2019-04-07T12:16:28.688Z,15.20
2019-04-07T12:19:04.407Z,15.17
2019-04-07T12:21:38.250Z,15.09
2019-04-07T12:24:09.772Z,14.97
2019-04-07T12:26:52.789Z,15.01
2019-04-07T12:29:37.609Z,14.98
2019-04-07T12:32:14.858Z,14.98
2019-04-07T12:34:47.706Z,15.01
2019-04-07T12:37:17.492Z,14.97
2019-04-07T12:39:51.286Z,15.01
2019-04-07T12:42:27.810Z,15.00
2019-04-07T12:44:58.259Z,15.05
2019-04-07T12:47:45.004Z,15.04
2019-04-07T12:50:17.587Z,15.12
2019-04-07T12:52:50.296Z,15.26
2019-04-07T12:55:22.965Z,15.43
2019-04-07T12:58:02.048Z,15.54
2019-04-07T13:00:56.125Z,15.42
2019-04-07T13:03:19.938Z,15.43
2019-04-07T13:06:09.260Z,15.30
2019-04-07T13:08:49.085Z,15.54
2019-04-07T13:11:38.680Z,15.69
2019-04-07T13:14:23.367Z,15.66
2019-04-07T13:17:08.971Z,15.59
2019-04-07T13:19:51.429Z,15.52
2019-04-07T13:22:34.399Z,15.15
2019-04-07T13:25:09.104Z,15.17
2019-04-07T13:27:41.662Z,15.23
2019-04-07T13:30:18.207Z,15.27
2019-04-07T13:33:04.678Z,15.28
2019-04-07T13:35:37.475Z,15.37
2019-04-07T13:38:26.275Z,15.36
2019-04-07T13:41:03.004Z,15.32
2019-04-07T13:43:39.167Z,15.34
2019-04-07T13:46:24.483Z,15.36
2019-04-07T13:49:00.446Z,15.25
2019-04-07T13:51:30.439Z,15.20
2019-04-07T13:54:01.990Z,15.26
2019-04-07T13:56:49.888Z,15.26
2019-04-07T13:59:19.334Z,15.17
2019-04-07T14:01:52.430Z,15.17
2019-04-07T14:04:39.231Z,15.18
2019-04-07T14:07:17.873Z,15.20
2019-04-07T14:09:46.930Z,15.21
2019-04-07T14:12:25.972Z,15.21
2019-04-07T14:14:56.095Z,15.16
2019-04-07T14:17:32.282Z,15.16
2019-04-07T14:20:19.283Z,15.12
2019-04-07T14:22:55.587Z,15.20
2019-04-07T14:25:44.554Z,15.34
2019-04-07T14:28:23.381Z,15.42
2019-04-07T14:30:56.347Z,15.35
2019-04-07T14:33:39.226Z,15.40
2019-04-07T14:36:09.322Z,15.38
2019-04-07T14:38:48.373Z,15.33
2019-04-07T14:41:24.710Z,15.34
2019-04-07T14:43:57.621Z,15.31
2019-04-07T14:46:30.339Z,15.25
2019-04-07T14:49:06.662Z,15.25
2019-04-07T14:51:54.899Z,15.23
2019-04-07T14:54:28.210Z,15.21
2019-04-07T14:57:15.498Z,15.20
2019-04-07T15:00:01.890Z,15.20
2019-04-07T15:02:30.396Z,15.16
2019-04-07T15:05:03.115Z,15.18
2019-04-07T15:07:40.834Z,15.14
2019-04-07T15:10:11.849Z,15.14
2019-04-07T15:12:57.940Z,14.99
2019-04-07T15:15:26.780Z,14.98
2019-04-07T15:17:55.300Z,15.01
2019-04-07T15:20:23.918Z,15.03
2019-04-07T15:22:52.848Z,15.07
2019-04-07T15:25:21.609Z,15.09
2019-04-07T15:27:49.979Z,15.09
2019-04-07T15:30:18.465Z,15.09
2019-04-07T15:32:46.851Z,15.04
2019-04-07T15:35:16.308Z,15.12
2019-04-07T15:37:44.907Z,15.12
2019-04-07T15:40:14.001Z,15.05
2019-04-07T15:42:45.917Z,15.01
2019-04-07T15:45:13.401Z,14.95
2019-04-07T15:47:42.489Z,15.05
2019-04-07T15:50:11.735Z,15.06
2019-04-07T15:52:43.707Z,14.99
2019-04-07T15:55:11.611Z,15.00
2019-04-07T15:57:40.749Z,14.94
2019-04-07T16:00:10.044Z,14.93
2019-04-07T16:02:42.162Z,14.89
2019-04-07T16:05:09.449Z,14.82
2019-04-07T16:07:37.832Z,14.76
2019-04-07T16:10:08.048Z,14.75
2019-04-07T16:12:45.174Z,14.73
2019-04-07T16:15:08.003Z,14.60
2019-04-07T16:17:37.167Z,14.55
2019-04-07T16:20:19.855Z,14.51
2019-04-07T16:22:44.255Z,14.42
2019-04-07T16:25:11.223Z,14.41
2019-04-07T16:27:39.798Z,14.39
2019-04-07T16:30:13.773Z,14.33
2019-04-07T16:32:41.967Z,14.27
2019-04-07T16:35:15.583Z,14.25
2019-04-07T16:37:40.900Z,14.12
2019-04-07T16:40:11.451Z,14.12
2019-04-07T16:42:39.836Z,14.07
2019-04-07T16:45:12.515Z,14.01
2019-04-07T16:47:38.676Z,13.91
2019-04-07T16:50:07.668Z,13.72
2019-04-07T16:52:36.471Z,13.75
2019-04-07T16:55:08.981Z,13.70
2019-04-07T16:57:37.586Z,13.61
2019-04-07T17:00:15.287Z,13.53
2019-04-07T17:02:43.922Z,13.52
2019-04-07T17:05:12.323Z,13.40
2019-04-07T17:07:45.245Z,13.38
2019-04-07T17:10:13.305Z,13.31
2019-04-07T17:12:43.923Z,13.23
2019-04-07T17:15:12.419Z,13.17
2019-04-07T17:17:40.809Z,13.11
2019-04-07T17:20:10.018Z,13.04
2019-04-07T17:22:38.439Z,12.98
2019-04-07T17:25:09.927Z,12.80
2019-04-07T17:27:40.944Z,12.79
2019-04-07T17:30:11.152Z,12.71
2019-04-07T17:32:40.333Z,12.72
2019-04-07T17:35:12.587Z,12.68
2019-04-07T17:37:40.585Z,12.68
2019-04-07T17:40:17.296Z,12.57
2019-04-07T17:42:48.218Z,12.50
2019-04-07T17:45:33.833Z,12.41
2019-04-07T17:48:16.802Z,12.43
2019-04-07T17:50:50.077Z,12.44
2019-04-07T17:53:23.221Z,12.38
2019-04-07T17:56:08.775Z,12.30
2019-04-07T17:58:39.972Z,12.26
2019-04-07T18:01:20.629Z,12.23
2019-04-07T18:03:47.929Z,12.20
2019-04-07T18:09:07.687Z,12.09
2019-04-07T18:11:33.934Z,12.05
2019-04-07T18:14:06.725Z,12.02
2019-04-07T18:16:53.151Z,11.96
2019-04-07T18:19:39.492Z,11.86
2019-04-07T18:22:21.437Z,11.82
2019-04-07T18:25:05.192Z,11.75
2019-04-07T18:27:36.217Z,11.75
2019-04-07T18:30:14.814Z,11.72
2019-04-07T18:32:59.782Z,11.70
2019-04-07T18:35:32.881Z,11.55
2019-04-07T18:38:17.337Z,11.58
2019-04-07T18:40:48.290Z,11.46
2019-04-07T18:43:24.591Z,11.53
2019-04-07T18:45:55.105Z,11.43
2019-04-07T18:48:40.251Z,11.39
2019-04-07T18:51:27.281Z,11.37
2019-04-07T18:54:05.375Z,11.33
2019-04-07T18:56:41.748Z,11.31
2019-04-07T18:59:20.446Z,11.26
2019-04-07T19:02:13.831Z,11.22
2019-04-07T19:04:50.060Z,11.18
2019-04-07T19:07:20.124Z,11.13
2019-04-07T19:10:10.672Z,11.10
2019-04-07T19:12:39.948Z,11.03
2019-04-07T19:15:21.419Z,11.02
2019-04-07T19:18:06.934Z,10.98
2019-04-07T19:20:51.981Z,10.96
2019-04-07T19:23:37.564Z,10.87
2019-04-07T19:26:18.285Z,10.85
2019-04-07T19:28:48.137Z,10.83
2019-04-07T19:31:21.619Z,10.81
2019-04-07T19:34:10.046Z,10.76
2019-04-07T19:36:42.801Z,10.76
2019-04-07T19:39:12.376Z,10.74
2019-04-07T19:41:54.061Z,10.69
2019-04-07T19:44:35.562Z,10.66
2019-04-07T19:47:01.403Z,10.62
2019-04-07T19:49:47.678Z,10.64
2019-04-07T19:52:39.539Z,10.68
2019-04-07T19:55:10.013Z,10.61
2019-04-07T19:57:45.533Z,10.57
2019-04-07T20:00:28.924Z,10.57
2019-04-07T20:03:11.387Z,10.58
2019-04-07T20:05:42.942Z,10.57
2019-04-07T20:08:16.500Z,10.52
2019-04-07T20:10:54.908Z,10.44
2019-04-07T20:13:26.138Z,10.43
2019-04-07T20:15:59.240Z,10.39
2019-04-07T20:18:38.315Z,10.37
2019-04-07T20:21:16.361Z,10.30
2019-04-07T20:23:45.972Z,10.25
2019-04-07T20:26:22.075Z,10.22
2019-04-07T20:29:02.194Z,10.21
2019-04-07T20:31:42.907Z,10.20
2019-04-07T20:34:16.354Z,10.20
2019-04-07T20:37:02.501Z,10.17
2019-04-07T20:39:35.124Z,10.13
2019-04-07T20:42:11.372Z,10.12
2019-04-07T20:44:57.048Z,10.13
2019-04-07T20:47:33.231Z,10.18
2019-04-07T20:50:19.743Z,10.13
2019-04-07T20:53:09.309Z,10.05
2019-04-07T20:55:30.906Z,10.03
2019-04-07T20:58:13.091Z,9.99
2019-04-07T21:00:36.920Z,9.91
2019-04-07T21:03:19.495Z,9.84
2019-04-07T21:06:00.120Z,9.78
2019-04-07T21:08:31.782Z,9.73
2019-04-07T21:11:10.980Z,9.73
2019-04-07T21:14:00.889Z,9.71
2019-04-07T21:16:41.230Z,9.53
2019-04-07T21:19:11.584Z,9.59
2019-04-07T21:21:54.056Z,9.55
2019-04-07T21:24:27.207Z,9.53
2019-04-07T21:26:59.331Z,9.50
2019-04-07T21:29:31.892Z,9.47
2019-04-07T21:32:09.605Z,9.44
2019-04-07T21:34:52.050Z,9.42
2019-04-07T21:37:28.447Z,9.42
2019-04-07T21:40:05.373Z,9.44
2019-04-07T21:42:32.733Z,9.49
2019-04-07T21:45:11.763Z,9.52
2019-04-07T21:48:00.541Z,9.49
2019-04-07T21:50:31.568Z,9.41
2019-04-07T21:53:04.550Z,9.30
2019-04-07T21:55:34.564Z,9.24
2019-04-07T21:58:10.639Z,9.00
2019-04-07T22:00:53.102Z,9.15
2019-04-07T22:03:26.859Z,9.11
2019-04-07T22:06:00.617Z,9.08
2019-04-07T22:08:30.694Z,9.05
2019-04-07T22:10:59.446Z,9.06
2019-04-07T22:13:28.660Z,9.04
2019-04-07T22:16:00.589Z,9.00
2019-04-07T22:18:27.338Z,9.00
2019-04-07T22:20:57.013Z,8.96
2019-04-07T22:23:25.497Z,8.95
2019-04-07T22:25:54.157Z,8.93
2019-04-07T22:28:22.798Z,8.84
2019-04-07T22:30:53.214Z,8.79
2019-04-07T22:33:25.290Z,8.72
2019-04-07T22:35:51.789Z,8.70
2019-04-07T22:38:23.063Z,8.70
2019-04-07T22:40:50.368Z,8.65
2019-04-07T22:43:19.903Z,8.61
2019-04-07T22:45:58.849Z,8.54
2019-04-07T22:48:22.788Z,8.48
2019-04-07T22:50:49.647Z,8.45
2019-04-07T22:53:22.532Z,8.41
2019-04-07T22:55:48.601Z,8.37
2019-04-07T22:58:18.011Z,8.32
2019-04-07T23:00:46.662Z,8.35
2019-04-07T23:03:15.567Z,8.33
2019-04-07T23:05:44.030Z,8.30
2019-04-07T23:08:12.536Z,8.25
2019-04-07T23:10:40.874Z,8.22
2019-04-07T23:13:09.298Z,8.16
2019-04-07T23:15:43.923Z,8.13
2019-04-07T23:18:07.864Z,8.08
2019-04-07T23:20:36.402Z,8.04
2019-04-07T23:23:04.819Z,8.00
2019-04-07T23:25:33.224Z,7.97
2019-04-07T23:28:02.661Z,7.97
2019-04-07T23:30:31.418Z,7.93
2019-04-07T23:33:00.047Z,7.88
2019-04-07T23:35:28.768Z,7.85
2019-04-07T23:37:57.453Z,7.77
2019-04-07T23:40:25.977Z,7.74
2019-04-07T23:42:55.111Z,7.77
2019-04-07T23:45:23.632Z,7.77
2019-04-07T23:47:52.557Z,7.74
2019-04-07T23:50:21.140Z,7.71
2019-04-07T23:52:49.795Z,7.67
2019-04-07T23:55:18.176Z,7.64
2019-04-07T23:57:46.568Z,7.65
